sensor_id;sensor_type;location;lat;lon;timestamp;temperature;humidity
37052;DHT22;22964;52.272;13.356;2023-08-24T00:02:06;21.30;55.50
37052;DHT22;22964;52.272;13.356;2023-08-24T00:04:32;21.30;55.50
37052;DHT22;22964;52.272;13.356;2023-08-24T00:06:59;21.30;55.60
37052;DHT22;22964;52.272;13.356;2023-08-24T00:09:26;21.20;55.70
37052;DHT22;22964;52.272;13.356;2023-08-24T00:11:52;21.20;55.70
37052;DHT22;22964;52.272;13.356;2023-08-24T00:14:18;21.20;55.70
37052;DHT22;22964;52.272;13.356;2023-08-24T00:16:44;21.20;55.80
37052;DHT22;22964;52.272;13.356;2023-08-24T00:19:10;21.10;55.90
37052;DHT22;22964;52.272;13.356;2023-08-24T00:21:36;21.10;55.90
37052;DHT22;22964;52.272;13.356;2023-08-24T00:24:02;21.10;56.00
37052;DHT22;22964;52.272;13.356;2023-08-24T00:26:27;21.10;56.10
37052;DHT22;22964;52.272;13.356;2023-08-24T00:28:54;21.10;56.20
37052;DHT22;22964;52.272;13.356;2023-08-24T00:31:20;21.00;56.20
37052;DHT22;22964;52.272;13.356;2023-08-24T00:33:47;21.00;56.30
37052;DHT22;22964;52.272;13.356;2023-08-24T00:36:13;21.00;56.40
37052;DHT22;22964;52.272;13.356;2023-08-24T00:38:39;20.90;56.40
37052;DHT22;22964;52.272;13.356;2023-08-24T00:41:04;21.00;56.60
37052;DHT22;22964;52.272;13.356;2023-08-24T00:43:30;20.90;56.50
37052;DHT22;22964;52.272;13.356;2023-08-24T00:45:58;20.90;56.60
37052;DHT22;22964;52.272;13.356;2023-08-24T00:48:25;20.90;56.70
37052;DHT22;22964;52.272;13.356;2023-08-24T00:50:58;20.80;56.80
37052;DHT22;22964;52.272;13.356;2023-08-24T00:53:25;20.80;56.80
37052;DHT22;22964;52.272;13.356;2023-08-24T00:55:52;20.80;56.80
37052;DHT22;22964;52.272;13.356;2023-08-24T00:58:19;20.80;56.90
37052;DHT22;22964;52.272;13.356;2023-08-24T01:00:46;20.80;57.00
37052;DHT22;22964;52.272;13.356;2023-08-24T01:03:12;20.80;57.00
37052;DHT22;22964;52.272;13.356;2023-08-24T01:05:38;20.70;57.10
37052;DHT22;22964;52.272;13.356;2023-08-24T01:08:04;20.70;57.20
37052;DHT22;22964;52.272;13.356;2023-08-24T01:10:59;20.70;57.20
37052;DHT22;22964;52.272;13.356;2023-08-24T01:13:30;20.70;57.70
37052;DHT22;22964;52.272;13.356;2023-08-24T01:16:09;20.70;57.50
37052;DHT22;22964;52.272;13.356;2023-08-24T01:18:39;20.60;57.80
37052;DHT22;22964;52.272;13.356;2023-08-24T01:21:08;20.60;57.30
37052;DHT22;22964;52.272;13.356;2023-08-24T01:26:08;20.60;57.80
37052;DHT22;22964;52.272;13.356;2023-08-24T01:28:34;20.60;57.80
37052;DHT22;22964;52.272;13.356;2023-08-24T01:31:00;20.50;57.70
37052;DHT22;22964;52.272;13.356;2023-08-24T01:33:26;20.50;57.80
37052;DHT22;22964;52.272;13.356;2023-08-24T01:35:53;20.50;57.80
37052;DHT22;22964;52.272;13.356;2023-08-24T01:38:19;20.50;57.90
37052;DHT22;22964;52.272;13.356;2023-08-24T01:41:02;20.50;57.90
37052;DHT22;22964;52.272;13.356;2023-08-24T01:43:31;20.40;58.60
37052;DHT22;22964;52.272;13.356;2023-08-24T01:46:00;20.40;57.90
37052;DHT22;22964;52.272;13.356;2023-08-24T01:48:29;20.40;58.10
37052;DHT22;22964;52.272;13.356;2023-08-24T01:50:56;20.40;58.10
37052;DHT22;22964;52.272;13.356;2023-08-24T01:53:22;20.30;58.10
37052;DHT22;22964;52.272;13.356;2023-08-24T01:55:48;20.30;58.10
37052;DHT22;22964;52.272;13.356;2023-08-24T01:58:15;20.30;58.20
37052;DHT22;22964;52.272;13.356;2023-08-24T02:00:41;20.30;58.40
37052;DHT22;22964;52.272;13.356;2023-08-24T02:03:06;20.30;58.50
37052;DHT22;22964;52.272;13.356;2023-08-24T02:05:32;20.20;58.60
37052;DHT22;22964;52.272;13.356;2023-08-24T02:07:58;20.20;58.80
37052;DHT22;22964;52.272;13.356;2023-08-24T02:10:25;20.20;58.80
37052;DHT22;22964;52.272;13.356;2023-08-24T02:12:51;20.20;58.80
37052;DHT22;22964;52.272;13.356;2023-08-24T02:15:17;20.20;58.80
37052;DHT22;22964;52.272;13.356;2023-08-24T02:17:43;20.20;58.90
37052;DHT22;22964;52.272;13.356;2023-08-24T02:20:10;20.20;59.00
37052;DHT22;22964;52.272;13.356;2023-08-24T02:22:37;20.20;59.10
37052;DHT22;22964;52.272;13.356;2023-08-24T02:25:04;20.20;59.30
37052;DHT22;22964;52.272;13.356;2023-08-24T02:27:31;20.20;59.40
37052;DHT22;22964;52.272;13.356;2023-08-24T02:29:57;20.10;59.50
37052;DHT22;22964;52.272;13.356;2023-08-24T02:32:22;20.10;59.60
37052;DHT22;22964;52.272;13.356;2023-08-24T02:34:48;20.10;59.80
37052;DHT22;22964;52.272;13.356;2023-08-24T02:37:14;20.10;59.90
37052;DHT22;22964;52.272;13.356;2023-08-24T02:39:41;20.10;60.00
37052;DHT22;22964;52.272;13.356;2023-08-24T02:42:07;20.10;61.00
37052;DHT22;22964;52.272;13.356;2023-08-24T02:44:32;20.10;60.30
37052;DHT22;22964;52.272;13.356;2023-08-24T02:46:58;20.10;60.50
37052;DHT22;22964;52.272;13.356;2023-08-24T02:49:24;20.10;60.60
37052;DHT22;22964;52.272;13.356;2023-08-24T02:51:50;20.10;60.60
37052;DHT22;22964;52.272;13.356;2023-08-24T02:54:16;20.10;60.70
37052;DHT22;22964;52.272;13.356;2023-08-24T02:56:41;20.10;60.80
37052;DHT22;22964;52.272;13.356;2023-08-24T02:59:07;20.10;60.70
37052;DHT22;22964;52.272;13.356;2023-08-24T03:01:33;20.00;60.70
37052;DHT22;22964;52.272;13.356;2023-08-24T03:04:00;20.10;60.80
37052;DHT22;22964;52.272;13.356;2023-08-24T03:06:25;20.10;60.80
37052;DHT22;22964;52.272;13.356;2023-08-24T03:08:51;20.00;60.80
37052;DHT22;22964;52.272;13.356;2023-08-24T03:11:17;20.00;60.90
37052;DHT22;22964;52.272;13.356;2023-08-24T03:13:43;20.00;61.00
37052;DHT22;22964;52.272;13.356;2023-08-24T03:16:09;20.00;61.00
37052;DHT22;22964;52.272;13.356;2023-08-24T03:18:36;20.00;61.00
37052;DHT22;22964;52.272;13.356;2023-08-24T03:21:03;20.00;61.00
37052;DHT22;22964;52.272;13.356;2023-08-24T03:23:32;20.00;61.10
37052;DHT22;22964;52.272;13.356;2023-08-24T03:25:58;20.00;61.30
37052;DHT22;22964;52.272;13.356;2023-08-24T03:28:24;20.00;61.40
37052;DHT22;22964;52.272;13.356;2023-08-24T03:30:52;20.00;61.50
37052;DHT22;22964;52.272;13.356;2023-08-24T03:33:19;20.00;61.80
37052;DHT22;22964;52.272;13.356;2023-08-24T03:35:45;20.00;61.80
37052;DHT22;22964;52.272;13.356;2023-08-24T03:38:11;20.00;62.00
37052;DHT22;22964;52.272;13.356;2023-08-24T03:40:37;20.00;62.30
37052;DHT22;22964;52.272;13.356;2023-08-24T03:43:03;20.00;62.50
37052;DHT22;22964;52.272;13.356;2023-08-24T03:45:29;20.00;62.60
37052;DHT22;22964;52.272;13.356;2023-08-24T03:47:55;20.00;62.70
37052;DHT22;22964;52.272;13.356;2023-08-24T03:50:21;20.00;62.80
37052;DHT22;22964;52.272;13.356;2023-08-24T03:52:49;20.00;63.00
37052;DHT22;22964;52.272;13.356;2023-08-24T03:55:15;20.10;63.20
37052;DHT22;22964;52.272;13.356;2023-08-24T03:57:42;20.10;63.20
37052;DHT22;22964;52.272;13.356;2023-08-24T04:00:09;20.10;63.40
37052;DHT22;22964;52.272;13.356;2023-08-24T04:02:42;20.10;63.60
37052;DHT22;22964;52.272;13.356;2023-08-24T04:05:12;20.10;63.60
37052;DHT22;22964;52.272;13.356;2023-08-24T04:07:38;20.20;63.80
37052;DHT22;22964;52.272;13.356;2023-08-24T04:10:05;20.20;63.90
37052;DHT22;22964;52.272;13.356;2023-08-24T04:12:32;20.30;63.90
37052;DHT22;22964;52.272;13.356;2023-08-24T04:14:58;20.30;64.00
37052;DHT22;22964;52.272;13.356;2023-08-24T04:17:24;20.30;63.90
37052;DHT22;22964;52.272;13.356;2023-08-24T04:19:50;20.30;64.00
37052;DHT22;22964;52.272;13.356;2023-08-24T04:22:16;20.40;64.10
37052;DHT22;22964;52.272;13.356;2023-08-24T04:24:41;20.40;64.10
37052;DHT22;22964;52.272;13.356;2023-08-24T04:27:07;20.40;64.10
37052;DHT22;22964;52.272;13.356;2023-08-24T04:29:33;20.50;64.20
37052;DHT22;22964;52.272;13.356;2023-08-24T04:31:58;20.50;64.20
37052;DHT22;22964;52.272;13.356;2023-08-24T04:34:24;20.60;64.30
37052;DHT22;22964;52.272;13.356;2023-08-24T04:36:50;20.60;64.30
37052;DHT22;22964;52.272;13.356;2023-08-24T04:39:15;20.60;64.20
37052;DHT22;22964;52.272;13.356;2023-08-24T04:41:44;20.70;64.20
37052;DHT22;22964;52.272;13.356;2023-08-24T04:44:10;20.70;64.20
37052;DHT22;22964;52.272;13.356;2023-08-24T04:46:36;20.70;64.10
37052;DHT22;22964;52.272;13.356;2023-08-24T04:49:02;20.70;64.10
37052;DHT22;22964;52.272;13.356;2023-08-24T04:51:28;20.70;64.20
37052;DHT22;22964;52.272;13.356;2023-08-24T04:53:54;20.80;64.20
37052;DHT22;22964;52.272;13.356;2023-08-24T04:56:20;20.80;64.30
37052;DHT22;22964;52.272;13.356;2023-08-24T04:58:56;20.80;64.30
37052;DHT22;22964;52.272;13.356;2023-08-24T05:01:25;20.80;64.80
37052;DHT22;22964;52.272;13.356;2023-08-24T05:03:54;20.90;64.80
37052;DHT22;22964;52.272;13.356;2023-08-24T05:06:21;20.90;64.80
37052;DHT22;22964;52.272;13.356;2023-08-24T05:08:47;20.90;64.60
37052;DHT22;22964;52.272;13.356;2023-08-24T05:11:13;21.00;64.50
37052;DHT22;22964;52.272;13.356;2023-08-24T05:13:40;21.00;64.40
37052;DHT22;22964;52.272;13.356;2023-08-24T05:16:06;21.00;64.40
37052;DHT22;22964;52.272;13.356;2023-08-24T05:18:31;21.10;64.40
37052;DHT22;22964;52.272;13.356;2023-08-24T05:20:57;21.00;64.30
37052;DHT22;22964;52.272;13.356;2023-08-24T05:23:23;21.10;65.20
37052;DHT22;22964;52.272;13.356;2023-08-24T05:25:48;21.20;64.30
37052;DHT22;22964;52.272;13.356;2023-08-24T05:28:14;21.20;64.30
37052;DHT22;22964;52.272;13.356;2023-08-24T05:30:40;21.20;64.30
37052;DHT22;22964;52.272;13.356;2023-08-24T05:33:06;21.20;64.20
37052;DHT22;22964;52.272;13.356;2023-08-24T05:35:32;21.30;64.30
37052;DHT22;22964;52.272;13.356;2023-08-24T05:37:57;21.30;64.30
37052;DHT22;22964;52.272;13.356;2023-08-24T05:40:23;21.40;64.30
37052;DHT22;22964;52.272;13.356;2023-08-24T05:42:49;21.40;64.40
37052;DHT22;22964;52.272;13.356;2023-08-24T05:45:14;21.50;64.50
37052;DHT22;22964;52.272;13.356;2023-08-24T05:47:40;21.60;64.60
37052;DHT22;22964;52.272;13.356;2023-08-24T05:50:06;21.60;64.50
37052;DHT22;22964;52.272;13.356;2023-08-24T05:52:32;21.70;64.40
37052;DHT22;22964;52.272;13.356;2023-08-24T05:54:58;21.70;64.00
37052;DHT22;22964;52.272;13.356;2023-08-24T05:57:23;21.80;64.00
37052;DHT22;22964;52.272;13.356;2023-08-24T05:59:49;21.90;64.00
37052;DHT22;22964;52.272;13.356;2023-08-24T06:02:15;21.90;63.90
37052;DHT22;22964;52.272;13.356;2023-08-24T06:04:41;22.00;64.00
37052;DHT22;22964;52.272;13.356;2023-08-24T06:07:06;22.10;64.00
37052;DHT22;22964;52.272;13.356;2023-08-24T06:09:32;22.10;63.90
37052;DHT22;22964;52.272;13.356;2023-08-24T06:11:58;22.20;63.90
37052;DHT22;22964;52.272;13.356;2023-08-24T06:14:23;22.30;63.90
37052;DHT22;22964;52.272;13.356;2023-08-24T06:16:49;22.40;63.70
37052;DHT22;22964;52.272;13.356;2023-08-24T06:19:15;22.50;63.40
37052;DHT22;22964;52.272;13.356;2023-08-24T06:21:41;22.60;63.20
37052;DHT22;22964;52.272;13.356;2023-08-24T06:24:06;22.70;62.90
37052;DHT22;22964;52.272;13.356;2023-08-24T06:26:32;22.80;63.50
37052;DHT22;22964;52.272;13.356;2023-08-24T06:28:58;22.80;62.50
37052;DHT22;22964;52.272;13.356;2023-08-24T06:31:23;22.90;62.50
37052;DHT22;22964;52.272;13.356;2023-08-24T06:33:49;23.00;62.60
37052;DHT22;22964;52.272;13.356;2023-08-24T06:36:15;23.10;62.50
37052;DHT22;22964;52.272;13.356;2023-08-24T06:38:41;23.20;62.40
37052;DHT22;22964;52.272;13.356;2023-08-24T06:41:06;23.30;62.30
37052;DHT22;22964;52.272;13.356;2023-08-24T06:43:37;23.40;62.10
37052;DHT22;22964;52.272;13.356;2023-08-24T06:46:05;23.50;61.70
37052;DHT22;22964;52.272;13.356;2023-08-24T06:48:34;23.50;61.50
37052;DHT22;22964;52.272;13.356;2023-08-24T06:51:00;23.60;61.40
37052;DHT22;22964;52.272;13.356;2023-08-24T06:53:26;23.70;61.40
37052;DHT22;22964;52.272;13.356;2023-08-24T06:55:58;23.80;61.50
37052;DHT22;22964;52.272;13.356;2023-08-24T06:58:24;23.90;61.30
37052;DHT22;22964;52.272;13.356;2023-08-24T07:00:50;24.00;61.00
37052;DHT22;22964;52.272;13.356;2023-08-24T07:03:19;24.10;60.80
37052;DHT22;22964;52.272;13.356;2023-08-24T07:05:45;24.30;60.70
37052;DHT22;22964;52.272;13.356;2023-08-24T07:08:12;24.40;60.40
37052;DHT22;22964;52.272;13.356;2023-08-24T07:10:38;24.50;60.20
37052;DHT22;22964;52.272;13.356;2023-08-24T07:13:06;24.60;60.30
37052;DHT22;22964;52.272;13.356;2023-08-24T07:15:33;24.70;60.00
37052;DHT22;22964;52.272;13.356;2023-08-24T07:18:03;24.80;59.70
37052;DHT22;22964;52.272;13.356;2023-08-24T07:20:32;24.90;59.20
37052;DHT22;22964;52.272;13.356;2023-08-24T07:22:58;25.00;59.00
37052;DHT22;22964;52.272;13.356;2023-08-24T07:25:24;25.20;59.30
37052;DHT22;22964;52.272;13.356;2023-08-24T07:27:50;25.30;59.20
37052;DHT22;22964;52.272;13.356;2023-08-24T07:30:15;25.40;58.70
37052;DHT22;22964;52.272;13.356;2023-08-24T07:32:42;25.60;59.10
37052;DHT22;22964;52.272;13.356;2023-08-24T07:35:08;25.70;59.00
37052;DHT22;22964;52.272;13.356;2023-08-24T07:37:33;25.90;58.90
37052;DHT22;22964;52.272;13.356;2023-08-24T07:39:59;26.10;58.50
37052;DHT22;22964;52.272;13.356;2023-08-24T07:42:25;26.30;58.50
37052;DHT22;22964;52.272;13.356;2023-08-24T07:44:51;26.50;58.10
37052;DHT22;22964;52.272;13.356;2023-08-24T07:47:16;26.70;57.40
37052;DHT22;22964;52.272;13.356;2023-08-24T07:49:42;26.90;57.10
37052;DHT22;22964;52.272;13.356;2023-08-24T07:52:11;27.10;56.40
37052;DHT22;22964;52.272;13.356;2023-08-24T07:54:37;27.30;56.00
37052;DHT22;22964;52.272;13.356;2023-08-24T07:57:05;27.50;55.30
37052;DHT22;22964;52.272;13.356;2023-08-24T07:59:30;27.70;55.10
37052;DHT22;22964;52.272;13.356;2023-08-24T08:01:56;27.80;54.90
37052;DHT22;22964;52.272;13.356;2023-08-24T08:04:22;28.00;54.80
37052;DHT22;22964;52.272;13.356;2023-08-24T08:06:48;28.20;54.60
37052;DHT22;22964;52.272;13.356;2023-08-24T08:09:13;28.30;54.20
37052;DHT22;22964;52.272;13.356;2023-08-24T08:11:39;28.40;53.80
37052;DHT22;22964;52.272;13.356;2023-08-24T08:14:05;28.70;53.90
37052;DHT22;22964;52.272;13.356;2023-08-24T08:16:30;28.90;53.80
37052;DHT22;22964;52.272;13.356;2023-08-24T08:18:56;29.10;53.00
37052;DHT22;22964;52.272;13.356;2023-08-24T08:21:22;29.30;52.70
37052;DHT22;22964;52.272;13.356;2023-08-24T08:23:49;29.50;51.90
37052;DHT22;22964;52.272;13.356;2023-08-24T08:26:15;29.60;51.50
37052;DHT22;22964;52.272;13.356;2023-08-24T08:28:41;29.80;51.40
37052;DHT22;22964;52.272;13.356;2023-08-24T08:31:07;29.90;50.90
37052;DHT22;22964;52.272;13.356;2023-08-24T08:33:33;30.00;50.40
37052;DHT22;22964;52.272;13.356;2023-08-24T08:35:58;30.10;50.10
37052;DHT22;22964;52.272;13.356;2023-08-24T08:38:24;30.20;49.90
37052;DHT22;22964;52.272;13.356;2023-08-24T08:41:03;30.20;49.70
37052;DHT22;22964;52.272;13.356;2023-08-24T08:43:30;30.20;48.30
37052;DHT22;22964;52.272;13.356;2023-08-24T08:45:56;30.30;48.80
37052;DHT22;22964;52.272;13.356;2023-08-24T08:48:23;30.30;48.60
37052;DHT22;22964;52.272;13.356;2023-08-24T08:50:50;30.40;48.50
37052;DHT22;22964;52.272;13.356;2023-08-24T08:53:16;30.40;48.00
37052;DHT22;22964;52.272;13.356;2023-08-24T08:55:44;30.40;48.00
37052;DHT22;22964;52.272;13.356;2023-08-24T08:58:11;30.40;47.80
37052;DHT22;22964;52.272;13.356;2023-08-24T09:00:37;30.40;48.00
37052;DHT22;22964;52.272;13.356;2023-08-24T09:03:03;30.50;47.80
37052;DHT22;22964;52.272;13.356;2023-08-24T09:05:32;30.50;47.50
37052;DHT22;22964;52.272;13.356;2023-08-24T09:07:58;30.50;47.20
37052;DHT22;22964;52.272;13.356;2023-08-24T09:10:25;30.60;47.40
37052;DHT22;22964;52.272;13.356;2023-08-24T09:12:51;30.60;47.80
37052;DHT22;22964;52.272;13.356;2023-08-24T09:15:26;30.60;47.20
37052;DHT22;22964;52.272;13.356;2023-08-24T09:17:54;30.60;46.20
37052;DHT22;22964;52.272;13.356;2023-08-24T09:20:27;30.70;46.40
37052;DHT22;22964;52.272;13.356;2023-08-24T09:22:55;30.70;46.00
37052;DHT22;22964;52.272;13.356;2023-08-24T09:25:25;30.70;46.80
37052;DHT22;22964;52.272;13.356;2023-08-24T09:27:58;30.70;46.50
37052;DHT22;22964;52.272;13.356;2023-08-24T09:30:29;30.70;45.40
37052;DHT22;22964;52.272;13.356;2023-08-24T09:32:55;30.70;45.90
37052;DHT22;22964;52.272;13.356;2023-08-24T09:35:21;30.70;46.20
37052;DHT22;22964;52.272;13.356;2023-08-24T09:37:50;30.70;46.10
37052;DHT22;22964;52.272;13.356;2023-08-24T09:40:25;30.70;45.60
37052;DHT22;22964;52.272;13.356;2023-08-24T09:42:52;30.80;45.50
37052;DHT22;22964;52.272;13.356;2023-08-24T09:45:17;30.80;45.70
37052;DHT22;22964;52.272;13.356;2023-08-24T09:47:50;30.80;45.40
37052;DHT22;22964;52.272;13.356;2023-08-24T09:50:17;30.80;44.80
37052;DHT22;22964;52.272;13.356;2023-08-24T09:52:42;30.70;45.10
37052;DHT22;22964;52.272;13.356;2023-08-24T09:55:09;30.70;44.70
37052;DHT22;22964;52.272;13.356;2023-08-24T09:57:39;30.70;45.10
37052;DHT22;22964;52.272;13.356;2023-08-24T10:00:09;30.60;45.00
37052;DHT22;22964;52.272;13.356;2023-08-24T10:02:54;30.70;45.80
37052;DHT22;22964;52.272;13.356;2023-08-24T10:05:22;30.80;45.60
37052;DHT22;22964;52.272;13.356;2023-08-24T10:07:52;31.00;45.80
37052;DHT22;22964;52.272;13.356;2023-08-24T10:10:20;31.10;45.30
37052;DHT22;22964;52.272;13.356;2023-08-24T10:12:56;31.30;45.40
37052;DHT22;22964;52.272;13.356;2023-08-24T10:15:23;31.50;44.40
37052;DHT22;22964;52.272;13.356;2023-08-24T10:17:50;31.70;44.70
37052;DHT22;22964;52.272;13.356;2023-08-24T10:20:19;31.90;44.60
37052;DHT22;22964;52.272;13.356;2023-08-24T10:22:46;32.00;43.80
37052;DHT22;22964;52.272;13.356;2023-08-24T10:25:12;32.20;43.90
37052;DHT22;22964;52.272;13.356;2023-08-24T10:27:39;32.40;43.70
37052;DHT22;22964;52.272;13.356;2023-08-24T10:30:13;32.50;43.20
37052;DHT22;22964;52.272;13.356;2023-08-24T10:32:41;32.70;42.00
37052;DHT22;22964;52.272;13.356;2023-08-24T10:35:07;32.80;42.50
37052;DHT22;22964;52.272;13.356;2023-08-24T10:37:33;32.90;42.30
37052;DHT22;22964;52.272;13.356;2023-08-24T10:40:00;33.00;42.20
37052;DHT22;22964;52.272;13.356;2023-08-24T10:42:26;33.10;42.00
37052;DHT22;22964;52.272;13.356;2023-08-24T10:44:52;33.10;41.40
37052;DHT22;22964;52.272;13.356;2023-08-24T10:47:23;33.20;40.80
37052;DHT22;22964;52.272;13.356;2023-08-24T10:52:35;33.20;40.50
37052;DHT22;22964;52.272;13.356;2023-08-24T10:55:03;33.20;41.00
37052;DHT22;22964;52.272;13.356;2023-08-24T10:57:37;33.40;41.10
37052;DHT22;22964;52.272;13.356;2023-08-24T11:00:11;33.40;40.30
37052;DHT22;22964;52.272;13.356;2023-08-24T11:02:45;33.50;40.00
37052;DHT22;22964;52.272;13.356;2023-08-24T11:05:15;33.60;40.10
37052;DHT22;22964;52.272;13.356;2023-08-24T11:07:58;33.60;40.20
37052;DHT22;22964;52.272;13.356;2023-08-24T11:10:30;33.80;39.80
37052;DHT22;22964;52.272;13.356;2023-08-24T11:15:49;34.00;38.80
37052;DHT22;22964;52.272;13.356;2023-08-24T11:18:27;34.10;38.90
37052;DHT22;22964;52.272;13.356;2023-08-24T11:21:00;34.20;38.90
37052;DHT22;22964;52.272;13.356;2023-08-24T11:23:27;34.40;38.70
37052;DHT22;22964;52.272;13.356;2023-08-24T11:25:54;34.40;39.30
37052;DHT22;22964;52.272;13.356;2023-08-24T11:28:23;34.50;39.30
37052;DHT22;22964;52.272;13.356;2023-08-24T11:30:49;34.60;38.80
37052;DHT22;22964;52.272;13.356;2023-08-24T11:33:34;34.70;38.50
37052;DHT22;22964;52.272;13.356;2023-08-24T11:36:03;34.70;37.80
37052;DHT22;22964;52.272;13.356;2023-08-24T11:38:38;34.80;38.50
37052;DHT22;22964;52.272;13.356;2023-08-24T11:41:14;34.90;37.10
37052;DHT22;22964;52.272;13.356;2023-08-24T11:43:42;35.00;36.90
37052;DHT22;22964;52.272;13.356;2023-08-24T11:46:08;35.10;37.90
37052;DHT22;22964;52.272;13.356;2023-08-24T11:48:33;35.20;37.70
37052;DHT22;22964;52.272;13.356;2023-08-24T11:51:02;35.30;37.70
37052;DHT22;22964;52.272;13.356;2023-08-24T11:53:28;35.40;37.20
37052;DHT22;22964;52.272;13.356;2023-08-24T11:55:57;35.50;36.80
37052;DHT22;22964;52.272;13.356;2023-08-24T11:58:23;35.70;37.00
37052;DHT22;22964;52.272;13.356;2023-08-24T12:00:49;35.70;37.00
37052;DHT22;22964;52.272;13.356;2023-08-24T12:03:15;35.80;36.70
37052;DHT22;22964;52.272;13.356;2023-08-24T12:05:41;35.90;36.40
37052;DHT22;22964;52.272;13.356;2023-08-24T12:08:07;35.90;36.40
37052;DHT22;22964;52.272;13.356;2023-08-24T12:10:32;36.00;36.10
37052;DHT22;22964;52.272;13.356;2023-08-24T12:13:05;36.00;36.00
37052;DHT22;22964;52.272;13.356;2023-08-24T12:15:36;36.00;36.30
37052;DHT22;22964;52.272;13.356;2023-08-24T12:18:12;36.10;35.50
37052;DHT22;22964;52.272;13.356;2023-08-24T12:20:40;36.10;35.00
37052;DHT22;22964;52.272;13.356;2023-08-24T12:23:06;36.10;35.70
37052;DHT22;22964;52.272;13.356;2023-08-24T12:25:37;36.10;35.50
37052;DHT22;22964;52.272;13.356;2023-08-24T12:28:11;36.10;35.00
37052;DHT22;22964;52.272;13.356;2023-08-24T12:30:51;36.00;34.80
37052;DHT22;22964;52.272;13.356;2023-08-24T12:33:24;36.00;34.80
37052;DHT22;22964;52.272;13.356;2023-08-24T12:35:52;35.90;34.50
37052;DHT22;22964;52.272;13.356;2023-08-24T12:38:18;35.90;35.30
37052;DHT22;22964;52.272;13.356;2023-08-24T12:40:44;35.90;35.40
37052;DHT22;22964;52.272;13.356;2023-08-24T12:43:09;35.90;35.50
37052;DHT22;22964;52.272;13.356;2023-08-24T12:45:35;35.90;35.40
37052;DHT22;22964;52.272;13.356;2023-08-24T12:48:04;35.90;35.20
37052;DHT22;22964;52.272;13.356;2023-08-24T12:50:29;35.90;35.10
37052;DHT22;22964;52.272;13.356;2023-08-24T12:52:55;35.90;35.40
37052;DHT22;22964;52.272;13.356;2023-08-24T12:55:25;36.00;35.10
37052;DHT22;22964;52.272;13.356;2023-08-24T12:57:51;36.00;34.90
37052;DHT22;22964;52.272;13.356;2023-08-24T13:00:18;36.00;34.70
37052;DHT22;22964;52.272;13.356;2023-08-24T13:02:44;36.00;34.40
37052;DHT22;22964;52.272;13.356;2023-08-24T13:05:10;36.10;34.40
37052;DHT22;22964;52.272;13.356;2023-08-24T13:07:37;36.10;34.30
37052;DHT22;22964;52.272;13.356;2023-08-24T13:10:04;36.00;34.10
37052;DHT22;22964;52.272;13.356;2023-08-24T13:12:30;36.00;34.10
37052;DHT22;22964;52.272;13.356;2023-08-24T13:14:56;36.00;34.80
37052;DHT22;22964;52.272;13.356;2023-08-24T13:17:21;36.10;34.40
37052;DHT22;22964;52.272;13.356;2023-08-24T13:19:47;36.20;34.20
37052;DHT22;22964;52.272;13.356;2023-08-24T13:22:14;36.20;33.60
37052;DHT22;22964;52.272;13.356;2023-08-24T13:24:41;36.30;33.50
37052;DHT22;22964;52.272;13.356;2023-08-24T13:27:08;36.30;33.60
37052;DHT22;22964;52.272;13.356;2023-08-24T13:29:36;36.40;33.50
37052;DHT22;22964;52.272;13.356;2023-08-24T13:32:03;36.40;33.20
37052;DHT22;22964;52.272;13.356;2023-08-24T13:34:29;36.40;33.30
37052;DHT22;22964;52.272;13.356;2023-08-24T13:36:55;36.50;33.20
37052;DHT22;22964;52.272;13.356;2023-08-24T13:39:22;36.50;33.20
37052;DHT22;22964;52.272;13.356;2023-08-24T13:41:47;36.50;32.90
37052;DHT22;22964;52.272;13.356;2023-08-24T13:44:13;36.60;33.20
37052;DHT22;22964;52.272;13.356;2023-08-24T13:46:39;36.60;33.30
37052;DHT22;22964;52.272;13.356;2023-08-24T13:49:05;36.70;33.00
37052;DHT22;22964;52.272;13.356;2023-08-24T13:51:31;36.80;33.10
37052;DHT22;22964;52.272;13.356;2023-08-24T13:53:57;36.80;32.50
37052;DHT22;22964;52.272;13.356;2023-08-24T13:56:23;36.90;32.50
37052;DHT22;22964;52.272;13.356;2023-08-24T13:58:48;36.90;32.20
37052;DHT22;22964;52.272;13.356;2023-08-24T14:01:14;36.90;32.30
37052;DHT22;22964;52.272;13.356;2023-08-24T14:03:40;36.90;32.20
37052;DHT22;22964;52.272;13.356;2023-08-24T14:06:08;36.80;32.10
37052;DHT22;22964;52.272;13.356;2023-08-24T14:08:36;36.80;32.10
37052;DHT22;22964;52.272;13.356;2023-08-24T14:11:02;36.80;31.80
37052;DHT22;22964;52.272;13.356;2023-08-24T14:13:28;36.80;31.60
37052;DHT22;22964;52.272;13.356;2023-08-24T14:15:54;36.80;31.30
37052;DHT22;22964;52.272;13.356;2023-08-24T14:18:21;36.70;31.40
37052;DHT22;22964;52.272;13.356;2023-08-24T14:20:47;36.70;31.40
37052;DHT22;22964;52.272;13.356;2023-08-24T14:23:13;36.60;31.40
37052;DHT22;22964;52.272;13.356;2023-08-24T14:25:39;36.60;31.30
37052;DHT22;22964;52.272;13.356;2023-08-24T14:28:05;36.60;31.60
37052;DHT22;22964;52.272;13.356;2023-08-24T14:30:31;36.50;31.00
37052;DHT22;22964;52.272;13.356;2023-08-24T14:32:57;36.50;30.80
37052;DHT22;22964;52.272;13.356;2023-08-24T14:35:22;36.50;30.90
37052;DHT22;22964;52.272;13.356;2023-08-24T14:37:48;36.50;31.60
37052;DHT22;22964;52.272;13.356;2023-08-24T14:40:14;36.50;31.10
37052;DHT22;22964;52.272;13.356;2023-08-24T14:42:41;36.50;31.10
37052;DHT22;22964;52.272;13.356;2023-08-24T14:45:07;36.50;31.00
37052;DHT22;22964;52.272;13.356;2023-08-24T14:47:33;36.50;31.10
37052;DHT22;22964;52.272;13.356;2023-08-24T14:49:59;36.40;31.20
37052;DHT22;22964;52.272;13.356;2023-08-24T14:52:24;36.40;30.80
37052;DHT22;22964;52.272;13.356;2023-08-24T14:54:50;36.30;30.80
37052;DHT22;22964;52.272;13.356;2023-08-24T14:57:16;36.40;30.90
37052;DHT22;22964;52.272;13.356;2023-08-24T14:59:41;36.30;30.70
37052;DHT22;22964;52.272;13.356;2023-08-24T15:02:07;36.30;30.90
37052;DHT22;22964;52.272;13.356;2023-08-24T15:04:33;36.20;31.00
37052;DHT22;22964;52.272;13.356;2023-08-24T15:06:59;36.20;31.10
37052;DHT22;22964;52.272;13.356;2023-08-24T15:09:25;36.20;31.10
37052;DHT22;22964;52.272;13.356;2023-08-24T15:11:50;36.20;30.90
37052;DHT22;22964;52.272;13.356;2023-08-24T15:14:16;36.30;30.80
37052;DHT22;22964;52.272;13.356;2023-08-24T15:16:42;36.20;30.60
37052;DHT22;22964;52.272;13.356;2023-08-24T15:19:08;36.20;30.50
37052;DHT22;22964;52.272;13.356;2023-08-24T15:21:33;36.10;30.50
37052;DHT22;22964;52.272;13.356;2023-08-24T15:23:59;36.10;30.50